sensor_id;sensor_type;location;lat;lon;timestamp;P1;durP1;ratioP1;P2;durP2;ratioP2
18933;SDS011;9599;53.706;10.384;2023-04-26T00:02:12;7.93;;;2.20;;
18933;SDS011;9599;53.706;10.384;2023-04-26T00:04:41;6.33;;;1.90;;
18933;SDS011;9599;53.706;10.384;2023-04-26T00:07:10;3.43;;;1.70;;
18933;SDS011;9599;53.706;10.384;2023-04-26T00:09:40;5.60;;;1.73;;
18933;SDS011;9599;53.706;10.384;2023-04-26T00:12:10;8.57;;;2.00;;
18933;SDS011;9599;53.706;10.384;2023-04-26T00:14:38;5.47;;;1.70;;
18933;SDS011;9599;53.706;10.384;2023-04-26T00:17:06;9.07;;;2.53;;
18933;SDS011;9599;53.706;10.384;2023-04-26T00:19:34;8.77;;;2.27;;
18933;SDS011;9599;53.706;10.384;2023-04-26T00:22:03;7.77;;;2.20;;
18933;SDS011;9599;53.706;10.384;2023-04-26T00:27:02;6.17;;;2.10;;
18933;SDS011;9599;53.706;10.384;2023-04-26T00:29:34;8.17;;;2.00;;
18933;SDS011;9599;53.706;10.384;2023-04-26T00:32:02;4.50;;;1.90;;
18933;SDS011;9599;53.706;10.384;2023-04-26T00:34:31;5.13;;;1.90;;
18933;SDS011;9599;53.706;10.384;2023-04-26T00:36:59;5.77;;;1.80;;
18933;SDS011;9599;53.706;10.384;2023-04-26T00:39:27;8.70;;;2.10;;
18933;SDS011;9599;53.706;10.384;2023-04-26T00:41:57;7.40;;;1.97;;
18933;SDS011;9599;53.706;10.384;2023-04-26T00:44:25;5.23;;;2.10;;
18933;SDS011;9599;53.706;10.384;2023-04-26T00:46:53;5.13;;;1.83;;
18933;SDS011;9599;53.706;10.384;2023-04-26T00:49:22;4.63;;;2.10;;
18933;SDS011;9599;53.706;10.384;2023-04-26T00:51:51;9.30;;;1.80;;
18933;SDS011;9599;53.706;10.384;2023-04-26T00:54:20;6.43;;;1.87;;
18933;SDS011;9599;53.706;10.384;2023-04-26T00:56:48;5.17;;;1.63;;
18933;SDS011;9599;53.706;10.384;2023-04-26T00:59:20;6.03;;;2.00;;
18933;SDS011;9599;53.706;10.384;2023-04-26T01:01:48;6.73;;;1.73;;
18933;SDS011;9599;53.706;10.384;2023-04-26T01:04:16;6.10;;;1.80;;
18933;SDS011;9599;53.706;10.384;2023-04-26T01:06:44;7.07;;;2.00;;
18933;SDS011;9599;53.706;10.384;2023-04-26T01:09:12;6.10;;;1.60;;
18933;SDS011;9599;53.706;10.384;2023-04-26T01:11:41;4.70;;;1.50;;
18933;SDS011;9599;53.706;10.384;2023-04-26T01:14:10;5.90;;;1.67;;
18933;SDS011;9599;53.706;10.384;2023-04-26T01:16:40;6.00;;;1.70;;
18933;SDS011;9599;53.706;10.384;2023-04-26T01:19:12;3.80;;;1.57;;
18933;SDS011;9599;53.706;10.384;2023-04-26T01:21:40;5.17;;;1.80;;
18933;SDS011;9599;53.706;10.384;2023-04-26T01:24:11;4.73;;;1.70;;
18933;SDS011;9599;53.706;10.384;2023-04-26T01:26:40;5.33;;;1.83;;
18933;SDS011;9599;53.706;10.384;2023-04-26T01:29:13;9.30;;;2.07;;
18933;SDS011;9599;53.706;10.384;2023-04-26T01:31:42;5.03;;;1.90;;
18933;SDS011;9599;53.706;10.384;2023-04-26T01:34:10;5.17;;;1.70;;
18933;SDS011;9599;53.706;10.384;2023-04-26T01:36:38;5.33;;;1.73;;
18933;SDS011;9599;53.706;10.384;2023-04-26T01:39:06;6.87;;;2.00;;
18933;SDS011;9599;53.706;10.384;2023-04-26T01:41:36;5.83;;;1.70;;
18933;SDS011;9599;53.706;10.384;2023-04-26T01:44:04;8.83;;;2.00;;
18933;SDS011;9599;53.706;10.384;2023-04-26T01:46:32;4.93;;;1.80;;
18933;SDS011;9599;53.706;10.384;2023-04-26T01:49:00;6.13;;;2.10;;
18933;SDS011;9599;53.706;10.384;2023-04-26T01:51:28;3.87;;;1.80;;
18933;SDS011;9599;53.706;10.384;2023-04-26T01:53:57;8.63;;;2.43;;
18933;SDS011;9599;53.706;10.384;2023-04-26T01:56:25;6.93;;;2.23;;
18933;SDS011;9599;53.706;10.384;2023-04-26T01:58:54;6.57;;;2.00;;
18933;SDS011;9599;53.706;10.384;2023-04-26T02:01:22;6.70;;;1.87;;
18933;SDS011;9599;53.706;10.384;2023-04-26T02:03:51;6.53;;;1.70;;
18933;SDS011;9599;53.706;10.384;2023-04-26T02:06:18;4.57;;;1.50;;
18933;SDS011;9599;53.706;10.384;2023-04-26T02:08:46;5.10;;;1.77;;
18933;SDS011;9599;53.706;10.384;2023-04-26T02:11:15;12.27;;;2.53;;
18933;SDS011;9599;53.706;10.384;2023-04-26T02:13:43;10.37;;;2.07;;
18933;SDS011;9599;53.706;10.384;2023-04-26T02:16:12;7.80;;;1.90;;
18933;SDS011;9599;53.706;10.384;2023-04-26T02:18:43;8.27;;;2.63;;
18933;SDS011;9599;53.706;10.384;2023-04-26T02:21:12;5.27;;;2.13;;
18933;SDS011;9599;53.706;10.384;2023-04-26T02:23:42;6.87;;;2.40;;
18933;SDS011;9599;53.706;10.384;2023-04-26T02:26:10;4.70;;;2.00;;
18933;SDS011;9599;53.706;10.384;2023-04-26T02:28:42;6.17;;;2.00;;
18933;SDS011;9599;53.706;10.384;2023-04-26T02:31:13;6.13;;;2.20;;
18933;SDS011;9599;53.706;10.384;2023-04-26T02:33:41;5.37;;;1.97;;
18933;SDS011;9599;53.706;10.384;2023-04-26T02:36:10;5.13;;;2.10;;
18933;SDS011;9599;53.706;10.384;2023-04-26T02:38:38;8.33;;;2.60;;
18933;SDS011;9599;53.706;10.384;2023-04-26T02:41:07;6.73;;;2.33;;
18933;SDS011;9599;53.706;10.384;2023-04-26T02:43:35;6.00;;;2.17;;
18933;SDS011;9599;53.706;10.384;2023-04-26T02:46:05;5.50;;;2.20;;
18933;SDS011;9599;53.706;10.384;2023-04-26T02:48:35;4.83;;;2.17;;
18933;SDS011;9599;53.706;10.384;2023-04-26T02:51:03;4.90;;;2.30;;
18933;SDS011;9599;53.706;10.384;2023-04-26T02:53:31;7.00;;;2.20;;
18933;SDS011;9599;53.706;10.384;2023-04-26T02:56:00;4.53;;;2.10;;
18933;SDS011;9599;53.706;10.384;2023-04-26T02:58:27;5.63;;;2.10;;
18933;SDS011;9599;53.706;10.384;2023-04-26T03:00:55;5.50;;;2.30;;
18933;SDS011;9599;53.706;10.384;2023-04-26T03:03:27;7.03;;;2.50;;
18933;SDS011;9599;53.706;10.384;2023-04-26T03:05:57;4.20;;;2.17;;
18933;SDS011;9599;53.706;10.384;2023-04-26T03:08:25;7.37;;;2.50;;
18933;SDS011;9599;53.706;10.384;2023-04-26T03:10:53;8.03;;;2.40;;
18933;SDS011;9599;53.706;10.384;2023-04-26T03:13:21;8.67;;;2.30;;
18933;SDS011;9599;53.706;10.384;2023-04-26T03:15:52;3.53;;;2.50;;
18933;SDS011;9599;53.706;10.384;2023-04-26T03:18:20;8.83;;;2.20;;
18933;SDS011;9599;53.706;10.384;2023-04-26T03:20:49;6.83;;;2.73;;
18933;SDS011;9599;53.706;10.384;2023-04-26T03:23:18;9.37;;;2.60;;
18933;SDS011;9599;53.706;10.384;2023-04-26T03:25:49;7.37;;;2.43;;
18933;SDS011;9599;53.706;10.384;2023-04-26T03:28:17;5.50;;;2.10;;
18933;SDS011;9599;53.706;10.384;2023-04-26T03:30:45;4.43;;;2.20;;
18933;SDS011;9599;53.706;10.384;2023-04-26T03:33:15;5.13;;;2.30;;
18933;SDS011;9599;53.706;10.384;2023-04-26T03:35:43;6.13;;;2.33;;
18933;SDS011;9599;53.706;10.384;2023-04-26T03:38:11;7.23;;;2.43;;
18933;SDS011;9599;53.706;10.384;2023-04-26T03:40:41;5.30;;;2.50;;
18933;SDS011;9599;53.706;10.384;2023-04-26T03:43:09;7.67;;;2.57;;
18933;SDS011;9599;53.706;10.384;2023-04-26T03:45:37;3.60;;;2.30;;
18933;SDS011;9599;53.706;10.384;2023-04-26T03:48:05;8.13;;;2.90;;
18933;SDS011;9599;53.706;10.384;2023-04-26T03:50:33;5.30;;;2.70;;
18933;SDS011;9599;53.706;10.384;2023-04-26T03:53:01;5.67;;;2.50;;
18933;SDS011;9599;53.706;10.384;2023-04-26T03:55:29;7.03;;;2.70;;
18933;SDS011;9599;53.706;10.384;2023-04-26T03:57:59;5.33;;;2.80;;
18933;SDS011;9599;53.706;10.384;2023-04-26T04:00:28;5.17;;;2.60;;
18933;SDS011;9599;53.706;10.384;2023-04-26T04:02:56;6.30;;;2.60;;
18933;SDS011;9599;53.706;10.384;2023-04-26T04:05:25;8.03;;;2.80;;
18933;SDS011;9599;53.706;10.384;2023-04-26T04:07:53;4.00;;;2.63;;
18933;SDS011;9599;53.706;10.384;2023-04-26T04:10:21;5.90;;;2.30;;
18933;SDS011;9599;53.706;10.384;2023-04-26T04:12:49;4.70;;;2.40;;
18933;SDS011;9599;53.706;10.384;2023-04-26T04:15:20;6.50;;;2.77;;
18933;SDS011;9599;53.706;10.384;2023-04-26T04:17:48;6.10;;;2.60;;
18933;SDS011;9599;53.706;10.384;2023-04-26T04:20:16;5.00;;;2.50;;
18933;SDS011;9599;53.706;10.384;2023-04-26T04:22:46;6.00;;;2.60;;
18933;SDS011;9599;53.706;10.384;2023-04-26T04:25:14;5.90;;;2.90;;
18933;SDS011;9599;53.706;10.384;2023-04-26T04:27:42;8.40;;;3.17;;
18933;SDS011;9599;53.706;10.384;2023-04-26T04:30:10;6.67;;;3.00;;
18933;SDS011;9599;53.706;10.384;2023-04-26T04:32:41;7.70;;;3.23;;
18933;SDS011;9599;53.706;10.384;2023-04-26T04:35:13;8.60;;;3.47;;
18933;SDS011;9599;53.706;10.384;2023-04-26T04:37:41;12.20;;;3.63;;
18933;SDS011;9599;53.706;10.384;2023-04-26T04:40:11;10.37;;;3.90;;
18933;SDS011;9599;53.706;10.384;2023-04-26T04:42:42;8.70;;;3.60;;
18933;SDS011;9599;53.706;10.384;2023-04-26T04:45:12;9.37;;;3.93;;
18933;SDS011;9599;53.706;10.384;2023-04-26T04:47:43;6.63;;;3.37;;
18933;SDS011;9599;53.706;10.384;2023-04-26T04:50:11;6.93;;;3.60;;
18933;SDS011;9599;53.706;10.384;2023-04-26T04:52:40;8.27;;;3.37;;
18933;SDS011;9599;53.706;10.384;2023-04-26T04:55:09;7.33;;;3.53;;
18933;SDS011;9599;53.706;10.384;2023-04-26T04:57:38;7.33;;;3.27;;
18933;SDS011;9599;53.706;10.384;2023-04-26T05:00:11;6.53;;;3.50;;
18933;SDS011;9599;53.706;10.384;2023-04-26T05:02:53;5.60;;;2.90;;
18933;SDS011;9599;53.706;10.384;2023-04-26T05:05:21;8.33;;;3.30;;
18933;SDS011;9599;53.706;10.384;2023-04-26T05:07:49;7.43;;;3.07;;
18933;SDS011;9599;53.706;10.384;2023-04-26T05:10:18;8.83;;;3.90;;
18933;SDS011;9599;53.706;10.384;2023-04-26T05:12:46;9.10;;;3.80;;
18933;SDS011;9599;53.706;10.384;2023-04-26T05:15:14;10.00;;;3.60;;
18933;SDS011;9599;53.706;10.384;2023-04-26T05:17:42;9.57;;;3.90;;
18933;SDS011;9599;53.706;10.384;2023-04-26T05:20:17;8.73;;;3.17;;
18933;SDS011;9599;53.706;10.384;2023-04-26T05:22:45;10.70;;;4.23;;
18933;SDS011;9599;53.706;10.384;2023-04-26T05:25:13;6.80;;;3.47;;
18933;SDS011;9599;53.706;10.384;2023-04-26T05:27:45;12.70;;;4.23;;
18933;SDS011;9599;53.706;10.384;2023-04-26T05:30:33;9.63;;;3.60;;
18933;SDS011;9599;53.706;10.384;2023-04-26T05:33:21;10.73;;;4.13;;
18933;SDS011;9599;53.706;10.384;2023-04-26T05:36:09;8.23;;;3.63;;
18933;SDS011;9599;53.706;10.384;2023-04-26T05:38:37;7.90;;;3.33;;
18933;SDS011;9599;53.706;10.384;2023-04-26T05:41:06;10.67;;;4.20;;
18933;SDS011;9599;53.706;10.384;2023-04-26T05:43:34;7.43;;;3.87;;
18933;SDS011;9599;53.706;10.384;2023-04-26T05:46:03;9.50;;;4.13;;
18933;SDS011;9599;53.706;10.384;2023-04-26T05:48:31;8.07;;;3.70;;
18933;SDS011;9599;53.706;10.384;2023-04-26T05:50:59;9.67;;;3.60;;
18933;SDS011;9599;53.706;10.384;2023-04-26T05:53:30;9.40;;;3.50;;
18933;SDS011;9599;53.706;10.384;2023-04-26T05:55:59;9.07;;;3.40;;
18933;SDS011;9599;53.706;10.384;2023-04-26T05:58:27;7.47;;;3.60;;
18933;SDS011;9599;53.706;10.384;2023-04-26T06:00:56;11.67;;;4.37;;
18933;SDS011;9599;53.706;10.384;2023-04-26T06:03:24;7.07;;;3.60;;
18933;SDS011;9599;53.706;10.384;2023-04-26T06:05:52;6.90;;;3.93;;
18933;SDS011;9599;53.706;10.384;2023-04-26T06:08:21;7.33;;;3.63;;
18933;SDS011;9599;53.706;10.384;2023-04-26T06:10:50;6.43;;;3.77;;
18933;SDS011;9599;53.706;10.384;2023-04-26T06:13:19;8.73;;;3.90;;
18933;SDS011;9599;53.706;10.384;2023-04-26T06:15:46;7.33;;;3.43;;
18933;SDS011;9599;53.706;10.384;2023-04-26T06:18:14;8.30;;;3.33;;
18933;SDS011;9599;53.706;10.384;2023-04-26T06:20:42;10.43;;;3.67;;
18933;SDS011;9599;53.706;10.384;2023-04-26T06:23:10;8.60;;;3.50;;
18933;SDS011;9599;53.706;10.384;2023-04-26T06:25:39;8.10;;;3.80;;
18933;SDS011;9599;53.706;10.384;2023-04-26T06:28:12;5.93;;;3.47;;
18933;SDS011;9599;53.706;10.384;2023-04-26T06:30:40;8.77;;;3.70;;
18933;SDS011;9599;53.706;10.384;2023-04-26T06:33:09;6.33;;;3.80;;
18933;SDS011;9599;53.706;10.384;2023-04-26T06:35:38;8.63;;;3.97;;
18933;SDS011;9599;53.706;10.384;2023-04-26T06:38:07;8.93;;;4.07;;
18933;SDS011;9599;53.706;10.384;2023-04-26T06:40:37;7.90;;;3.67;;
18933;SDS011;9599;53.706;10.384;2023-04-26T06:43:07;9.07;;;4.17;;
18933;SDS011;9599;53.706;10.384;2023-04-26T06:45:36;8.87;;;4.03;;
18933;SDS011;9599;53.706;10.384;2023-04-26T06:48:07;9.50;;;4.03;;
18933;SDS011;9599;53.706;10.384;2023-04-26T06:50:36;10.93;;;4.33;;
18933;SDS011;9599;53.706;10.384;2023-04-26T06:53:05;14.80;;;4.73;;
18933;SDS011;9599;53.706;10.384;2023-04-26T06:55:33;7.97;;;4.10;;
18933;SDS011;9599;53.706;10.384;2023-04-26T06:58:01;8.80;;;4.50;;
18933;SDS011;9599;53.706;10.384;2023-04-26T07:00:29;8.23;;;4.67;;
18933;SDS011;9599;53.706;10.384;2023-04-26T07:02:58;8.10;;;4.37;;
18933;SDS011;9599;53.706;10.384;2023-04-26T07:05:27;8.23;;;4.10;;
18933;SDS011;9599;53.706;10.384;2023-04-26T07:07:55;9.43;;;3.87;;
18933;SDS011;9599;53.706;10.384;2023-04-26T07:10:23;9.20;;;4.00;;
18933;SDS011;9599;53.706;10.384;2023-04-26T07:12:53;10.40;;;3.93;;
18933;SDS011;9599;53.706;10.384;2023-04-26T07:15:21;12.73;;;4.37;;
18933;SDS011;9599;53.706;10.384;2023-04-26T07:17:49;8.20;;;3.80;;
18933;SDS011;9599;53.706;10.384;2023-04-26T07:20:18;7.43;;;3.70;;
18933;SDS011;9599;53.706;10.384;2023-04-26T07:22:47;7.17;;;3.40;;
18933;SDS011;9599;53.706;10.384;2023-04-26T07:25:16;7.63;;;3.53;;
18933;SDS011;9599;53.706;10.384;2023-04-26T07:27:44;8.00;;;3.97;;
18933;SDS011;9599;53.706;10.384;2023-04-26T07:30:12;7.23;;;3.70;;
18933;SDS011;9599;53.706;10.384;2023-04-26T07:32:40;7.40;;;3.30;;
18933;SDS011;9599;53.706;10.384;2023-04-26T07:35:08;7.23;;;3.50;;
18933;SDS011;9599;53.706;10.384;2023-04-26T07:37:44;7.07;;;3.60;;
18933;SDS011;9599;53.706;10.384;2023-04-26T07:40:12;9.67;;;4.13;;
18933;SDS011;9599;53.706;10.384;2023-04-26T07:42:40;8.17;;;3.30;;
18933;SDS011;9599;53.706;10.384;2023-04-26T07:45:09;8.60;;;3.40;;
18933;SDS011;9599;53.706;10.384;2023-04-26T07:47:37;9.27;;;3.60;;
18933;SDS011;9599;53.706;10.384;2023-04-26T07:50:06;8.07;;;3.37;;
18933;SDS011;9599;53.706;10.384;2023-04-26T07:52:35;5.70;;;3.00;;
18933;SDS011;9599;53.706;10.384;2023-04-26T07:55:05;11.37;;;3.30;;
18933;SDS011;9599;53.706;10.384;2023-04-26T07:57:33;8.57;;;3.60;;
18933;SDS011;9599;53.706;10.384;2023-04-26T08:00:01;9.80;;;3.60;;
18933;SDS011;9599;53.706;10.384;2023-04-26T08:02:37;6.87;;;3.40;;
18933;SDS011;9599;53.706;10.384;2023-04-26T08:05:10;7.57;;;3.27;;
18933;SDS011;9599;53.706;10.384;2023-04-26T08:07:39;9.27;;;3.27;;
18933;SDS011;9599;53.706;10.384;2023-04-26T08:10:09;7.30;;;2.80;;
18933;SDS011;9599;53.706;10.384;2023-04-26T08:12:37;7.30;;;3.20;;
18933;SDS011;9599;53.706;10.384;2023-04-26T08:15:05;4.93;;;2.67;;
18933;SDS011;9599;53.706;10.384;2023-04-26T08:17:34;7.37;;;3.00;;
18933;SDS011;9599;53.706;10.384;2023-04-26T08:20:02;6.80;;;3.10;;
18933;SDS011;9599;53.706;10.384;2023-04-26T08:22:32;8.37;;;2.87;;
18933;SDS011;9599;53.706;10.384;2023-04-26T08:25:00;8.47;;;3.23;;
18933;SDS011;9599;53.706;10.384;2023-04-26T08:27:31;9.67;;;3.03;;
18933;SDS011;9599;53.706;10.384;2023-04-26T08:29:59;6.80;;;3.33;;
18933;SDS011;9599;53.706;10.384;2023-04-26T08:32:27;5.53;;;2.80;;
18933;SDS011;9599;53.706;10.384;2023-04-26T08:34:55;6.37;;;2.60;;
18933;SDS011;9599;53.706;10.384;2023-04-26T08:37:23;4.87;;;2.67;;
18933;SDS011;9599;53.706;10.384;2023-04-26T08:39:54;5.60;;;2.50;;
18933;SDS011;9599;53.706;10.384;2023-04-26T08:42:23;7.20;;;2.40;;
18933;SDS011;9599;53.706;10.384;2023-04-26T08:44:55;4.27;;;1.97;;
18933;SDS011;9599;53.706;10.384;2023-04-26T08:47:28;5.70;;;1.73;;
18933;SDS011;9599;53.706;10.384;2023-04-26T08:50:02;6.10;;;2.00;;
18933;SDS011;9599;53.706;10.384;2023-04-26T08:52:32;5.60;;;2.10;;
18933;SDS011;9599;53.706;10.384;2023-04-26T08:55:01;4.10;;;1.83;;
18933;SDS011;9599;53.706;10.384;2023-04-26T08:57:31;6.30;;;2.13;;
18933;SDS011;9599;53.706;10.384;2023-04-26T09:00:01;6.50;;;2.17;;
18933;SDS011;9599;53.706;10.384;2023-04-26T09:02:31;4.77;;;2.17;;
18933;SDS011;9599;53.706;10.384;2023-04-26T09:05:00;5.03;;;2.30;;
18933;SDS011;9599;53.706;10.384;2023-04-26T09:07:29;4.27;;;2.30;;
18933;SDS011;9599;53.706;10.384;2023-04-26T09:09:59;4.33;;;2.00;;
18933;SDS011;9599;53.706;10.384;2023-04-26T09:12:27;4.37;;;1.90;;
18933;SDS011;9599;53.706;10.384;2023-04-26T09:14:55;4.87;;;2.10;;
18933;SDS011;9599;53.706;10.384;2023-04-26T09:17:25;2.90;;;1.67;;
18933;SDS011;9599;53.706;10.384;2023-04-26T09:19:54;4.37;;;1.87;;
18933;SDS011;9599;53.706;10.384;2023-04-26T09:22:28;3.93;;;1.70;;
18933;SDS011;9599;53.706;10.384;2023-04-26T09:24:57;3.07;;;1.53;;
18933;SDS011;9599;53.706;10.384;2023-04-26T09:27:31;6.50;;;1.60;;
18933;SDS011;9599;53.706;10.384;2023-04-26T09:30:02;2.07;;;1.33;;
18933;SDS011;9599;53.706;10.384;2023-04-26T09:32:43;3.00;;;1.73;;
18933;SDS011;9599;53.706;10.384;2023-04-26T09:35:20;5.57;;;1.83;;
18933;SDS011;9599;53.706;10.384;2023-04-26T09:37:55;5.73;;;1.70;;
18933;SDS011;9599;53.706;10.384;2023-04-26T09:40:36;3.27;;;1.80;;
18933;SDS011;9599;53.706;10.384;2023-04-26T09:43:06;2.97;;;1.70;;
18933;SDS011;9599;53.706;10.384;2023-04-26T09:45:43;5.30;;;1.90;;
18933;SDS011;9599;53.706;10.384;2023-04-26T09:48:14;2.43;;;1.60;;
18933;SDS011;9599;53.706;10.384;2023-04-26T09:50:44;3.43;;;1.67;;
18933;SDS011;9599;53.706;10.384;2023-04-26T09:53:23;5.40;;;1.80;;
18933;SDS011;9599;53.706;10.384;2023-04-26T09:55:56;3.70;;;1.70;;
18933;SDS011;9599;53.706;10.384;2023-04-26T09:58:35;6.93;;;1.50;;
18933;SDS011;9599;53.706;10.384;2023-04-26T10:01:04;4.53;;;1.90;;
18933;SDS011;9599;53.706;10.384;2023-04-26T10:03:35;4.37;;;1.73;;
18933;SDS011;9599;53.706;10.384;2023-04-26T10:06:05;5.37;;;2.03;;
18933;SDS011;9599;53.706;10.384;2023-04-26T10:08:33;3.70;;;1.67;;
18933;SDS011;9599;53.706;10.384;2023-04-26T10:11:02;3.07;;;1.70;;
18933;SDS011;9599;53.706;10.384;2023-04-26T10:13:32;4.57;;;1.70;;
18933;SDS011;9599;53.706;10.384;2023-04-26T10:16:00;5.40;;;1.50;;
18933;SDS011;9599;53.706;10.384;2023-04-26T10:18:29;4.03;;;1.73;;
18933;SDS011;9599;53.706;10.384;2023-04-26T10:20:59;3.10;;;1.73;;
18933;SDS011;9599;53.706;10.384;2023-04-26T10:23:37;3.17;;;1.80;;
18933;SDS011;9599;53.706;10.384;2023-04-26T10:26:06;4.57;;;1.80;;
18933;SDS011;9599;53.706;10.384;2023-04-26T10:29:13;4.77;;;1.90;;
18933;SDS011;9599;53.706;10.384;2023-04-26T10:34:43;7.40;;;2.20;;
18933;SDS011;9599;53.706;10.384;2023-04-26T10:37:14;4.93;;;2.07;;
18933;SDS011;9599;53.706;10.384;2023-04-26T10:39:43;6.13;;;2.07;;
18933;SDS011;9599;53.706;10.384;2023-04-26T10:42:16;3.10;;;1.90;;
18933;SDS011;9599;53.706;10.384;2023-04-26T10:44:52;3.70;;;2.03;;
18933;SDS011;9599;53.706;10.384;2023-04-26T10:47:21;3.90;;;2.00;;
18933;SDS011;9599;53.706;10.384;2023-04-26T10:50:01;4.77;;;2.13;;
18933;SDS011;9599;53.706;10.384;2023-04-26T10:52:33;4.40;;;2.10;;
18933;SDS011;9599;53.706;10.384;2023-04-26T10:55:02;3.70;;;2.13;;
18933;SDS011;9599;53.706;10.384;2023-04-26T10:57:45;5.33;;;2.00;;
18933;SDS011;9599;53.706;10.384;2023-04-26T11:03:04;4.87;;;2.10;;
18933;SDS011;9599;53.706;10.384;2023-04-26T11:05:46;5.03;;;2.20;;
18933;SDS011;9599;53.706;10.384;2023-04-26T11:08:19;3.60;;;2.37;;
18933;SDS011;9599;53.706;10.384;2023-04-26T11:10:51;4.63;;;2.27;;
18933;SDS011;9599;53.706;10.384;2023-04-26T11:13:40;5.00;;;2.07;;
18933;SDS011;9599;53.706;10.384;2023-04-26T11:16:09;4.93;;;2.23;;
18933;SDS011;9599;53.706;10.384;2023-04-26T11:18:40;5.30;;;2.10;;
18933;SDS011;9599;53.706;10.384;2023-04-26T11:21:09;4.87;;;2.20;;
18933;SDS011;9599;53.706;10.384;2023-04-26T11:23:41;3.73;;;1.90;;
18933;SDS011;9599;53.706;10.384;2023-04-26T11:26:19;4.20;;;2.10;;
18933;SDS011;9599;53.706;10.384;2023-04-26T11:28:47;6.20;;;1.67;;
18933;SDS011;9599;53.706;10.384;2023-04-26T11:31:17;2.87;;;1.50;;
18933;SDS011;9599;53.706;10.384;2023-04-26T11:33:45;3.17;;;1.50;;
18933;SDS011;9599;53.706;10.384;2023-04-26T11:36:16;2.73;;;1.40;;
18933;SDS011;9599;53.706;10.384;2023-04-26T11:38:46;3.73;;;1.60;;
18933;SDS011;9599;53.706;10.384;2023-04-26T11:41:14;6.00;;;1.30;;
18933;SDS011;9599;53.706;10.384;2023-04-26T11:43:41;2.20;;;1.40;;
18933;SDS011;9599;53.706;10.384;2023-04-26T11:46:09;4.60;;;1.80;;
18933;SDS011;9599;53.706;10.384;2023-04-26T11:48:37;3.37;;;1.50;;
18933;SDS011;9599;53.706;10.384;2023-04-26T11:51:06;2.67;;;1.77;;
18933;SDS011;9599;53.706;10.384;2023-04-26T11:53:36;2.67;;;1.20;;
18933;SDS011;9599;53.706;10.384;2023-04-26T11:56:06;1.93;;;1.10;;
18933;SDS011;9599;53.706;10.384;2023-04-26T11:58:45;2.67;;;1.50;;
18933;SDS011;9599;53.706;10.384;2023-04-26T12:01:20;2.93;;;1.10;;
18933;SDS011;9599;53.706;10.384;2023-04-26T12:03:50;2.13;;;1.37;;
18933;SDS011;9599;53.706;10.384;2023-04-26T12:06:19;2.50;;;1.40;;
18933;SDS011;9599;53.706;10.384;2023-04-26T12:08:52;2.87;;;1.50;;
18933;SDS011;9599;53.706;10.384;2023-04-26T12:11:21;5.43;;;1.40;;
18933;SDS011;9599;53.706;10.384;2023-04-26T12:13:49;5.03;;;1.43;;
18933;SDS011;9599;53.706;10.384;2023-04-26T12:16:17;4.00;;;1.50;;
18933;SDS011;9599;53.706;10.384;2023-04-26T12:18:52;4.20;;;1.40;;
18933;SDS011;9599;53.706;10.384;2023-04-26T12:21:22;3.43;;;1.57;;
18933;SDS011;9599;53.706;10.384;2023-04-26T12:23:53;2.90;;;1.90;;
18933;SDS011;9599;53.706;10.384;2023-04-26T12:26:30;1.80;;;1.20;;
18933;SDS011;9599;53.706;10.384;2023-04-26T12:29:09;2.53;;;1.60;;
18933;SDS011;9599;53.706;10.384;2023-04-26T12:31:37;2.30;;;1.23;;
18933;SDS011;9599;53.706;10.384;2023-04-26T12:34:05;1.80;;;1.30;;
18933;SDS011;9599;53.706;10.384;2023-04-26T12:36:34;3.40;;;1.40;;
18933;SDS011;9599;53.706;10.384;2023-04-26T12:39:02;3.30;;;1.60;;
18933;SDS011;9599;53.706;10.384;2023-04-26T12:41:32;3.47;;;1.30;;
18933;SDS011;9599;53.706;10.384;2023-04-26T12:43:59;2.03;;;1.10;;
18933;SDS011;9599;53.706;10.384;2023-04-26T12:46:27;2.77;;;1.40;;
18933;SDS011;9599;53.706;10.384;2023-04-26T12:48:56;2.73;;;1.23;;
18933;SDS011;9599;53.706;10.384;2023-04-26T12:51:24;3.27;;;1.10;;
18933;SDS011;9599;53.706;10.384;2023-04-26T12:53:52;3.80;;;1.60;;
18933;SDS011;9599;53.706;10.384;2023-04-26T12:56:20;2.43;;;1.23;;
18933;SDS011;9599;53.706;10.384;2023-04-26T12:58:49;3.20;;;1.20;;
18933;SDS011;9599;53.706;10.384;2023-04-26T13:01:17;4.70;;;1.50;;
18933;SDS011;9599;53.706;10.384;2023-04-26T13:03:45;4.07;;;1.40;;
18933;SDS011;9599;53.706;10.384;2023-04-26T13:06:14;5.30;;;1.60;;
18933;SDS011;9599;53.706;10.384;2023-04-26T13:08:42;3.43;;;1.30;;
18933;SDS011;9599;53.706;10.384;2023-04-26T13:11:09;4.60;;;1.50;;
18933;SDS011;9599;53.706;10.384;2023-04-26T13:13:37;2.87;;;1.23;;
18933;SDS011;9599;53.706;10.384;2023-04-26T13:16:11;4.23;;;1.40;;
18933;SDS011;9599;53.706;10.384;2023-04-26T13:18:39;4.73;;;1.27;;
18933;SDS011;9599;53.706;10.384;2023-04-26T13:21:07;4.40;;;1.33;;
18933;SDS011;9599;53.706;10.384;2023-04-26T13:23:35;4.07;;;1.30;;
18933;SDS011;9599;53.706;10.384;2023-04-26T13:26:03;3.77;;;1.50;;
18933;SDS011;9599;53.706;10.384;2023-04-26T13:28:31;4.90;;;1.63;;
18933;SDS011;9599;53.706;10.384;2023-04-26T13:30:59;3.73;;;1.50;;
18933;SDS011;9599;53.706;10.384;2023-04-26T13:33:28;3.07;;;1.40;;
18933;SDS011;9599;53.706;10.384;2023-04-26T13:35:56;3.03;;;1.10;;
18933;SDS011;9599;53.706;10.384;2023-04-26T13:38:24;3.70;;;1.60;;
18933;SDS011;9599;53.706;10.384;2023-04-26T13:40:52;3.77;;;1.30;;
18933;SDS011;9599;53.706;10.384;2023-04-26T13:43:20;3.00;;;1.43;;
18933;SDS011;9599;53.706;10.384;2023-04-26T13:45:48;1.90;;;1.30;;
18933;SDS011;9599;53.706;10.384;2023-04-26T13:48:16;6.10;;;1.40;;
18933;SDS011;9599;53.706;10.384;2023-04-26T13:50:45;2.83;;;1.43;;
18933;SDS011;9599;53.706;10.384;2023-04-26T13:53:13;3.83;;;1.47;;
18933;SDS011;9599;53.706;10.384;2023-04-26T13:55:41;4.57;;;1.60;;
18933;SDS011;9599;53.706;10.384;2023-04-26T13:58:09;2.40;;;1.40;;
18933;SDS011;9599;53.706;10.384;2023-04-26T14:00:37;3.73;;;1.63;;
18933;SDS011;9599;53.706;10.384;2023-04-26T14:03:05;3.13;;;1.43;;
18933;SDS011;9599;53.706;10.384;2023-04-26T14:05:33;4.90;;;1.50;;
18933;SDS011;9599;53.706;10.384;2023-04-26T14:08:02;2.93;;;1.33;;
18933;SDS011;9599;53.706;10.384;2023-04-26T14:10:31;3.10;;;1.13;;
18933;SDS011;9599;53.706;10.384;2023-04-26T14:12:59;2.40;;;1.20;;
18933;SDS011;9599;53.706;10.384;2023-04-26T14:15:27;3.07;;;1.10;;
18933;SDS011;9599;53.706;10.384;2023-04-26T14:17:55;2.97;;;1.40;;
18933;SDS011;9599;53.706;10.384;2023-04-26T14:20:23;5.60;;;1.50;;
18933;SDS011;9599;53.706;10.384;2023-04-26T14:22:51;3.03;;;1.57;;
18933;SDS011;9599;53.706;10.384;2023-04-26T14:25:20;3.63;;;1.50;;
18933;SDS011;9599;53.706;10.384;2023-04-26T14:27:48;2.93;;;1.50;;
18933;SDS011;9599;53.706;10.384;2023-04-26T14:30:19;3.77;;;1.40;;
18933;SDS011;9599;53.706;10.384;2023-04-26T14:32:47;5.07;;;1.50;;
18933;SDS011;9599;53.706;10.384;2023-04-26T14:35:15;3.73;;;1.77;;
18933;SDS011;9599;53.706;10.384;2023-04-26T14:37:42;6.53;;;1.70;;
18933;SDS011;9599;53.706;10.384;2023-04-26T14:40:11;5.07;;;1.50;;
18933;SDS011;9599;53.706;10.384;2023-04-26T14:42:40;3.70;;;1.57;;
18933;SDS011;9599;53.706;10.384;2023-04-26T14:45:11;4.33;;;1.63;;
18933;SDS011;9599;53.706;10.384;2023-04-26T14:47:39;4.83;;;1.50;;
18933;SDS011;9599;53.706;10.384;2023-04-26T14:50:07;7.17;;;1.67;;
18933;SDS011;9599;53.706;10.384;2023-04-26T14:52:36;3.20;;;1.80;;
18933;SDS011;9599;53.706;10.384;2023-04-26T14:55:04;5.03;;;2.00;;
18933;SDS011;9599;53.706;10.384;2023-04-26T14:57:33;5.67;;;1.57;;
18933;SDS011;9599;53.706;10.384;2023-04-26T15:00:03;6.80;;;1.60;;
18933;SDS011;9599;53.706;10.384;2023-04-26T15:02:34;4.47;;;1.50;;
18933;SDS011;9599;53.706;10.384;2023-04-26T15:05:02;5.03;;;1.37;;
18933;SDS011;9599;53.706;10.384;2023-04-26T15:07:31;3.83;;;1.93;;
18933;SDS011;9599;53.706;10.384;2023-04-26T15:09:59;2.97;;;1.63;;
18933;SDS011;9599;53.706;10.384;2023-04-26T15:12:27;6.87;;;1.70;;